createdAt,value
2019-06-15T00:02:13.615Z,98.45
2019-06-15T00:05:18.804Z,97.36
2019-06-15T00:08:26.033Z,96.44
2019-06-15T00:11:31.163Z,94.88
2019-06-15T00:14:36.386Z,93.58
2019-06-15T00:17:41.646Z,93.61
2019-06-15T00:20:46.885Z,93.32
2019-06-15T00:23:52.065Z,93.32
2019-06-15T00:26:57.294Z,93.02
2019-06-15T00:30:02.509Z,93.53
2019-06-15T00:33:07.824Z,92.65
2019-06-15T00:36:13.055Z,92.95
2019-06-15T00:39:18.211Z,92.94
2019-06-15T00:42:23.720Z,92.77
2019-06-15T00:45:28.915Z,92.85
2019-06-15T00:48:34.073Z,91.62
2019-06-15T00:51:39.254Z,91.22
2019-06-15T00:54:50.437Z,90.86
2019-06-15T00:57:51.411Z,90.98
2019-06-15T01:00:56.549Z,90.83
2019-06-15T01:04:01.713Z,97.03
2019-06-15T01:07:06.974Z,97.72
2019-06-15T01:10:12.513Z,105.23
2019-06-15T01:13:17.794Z,109.68
2019-06-15T01:16:22.966Z,114.30
2019-06-15T01:19:28.273Z,117.04
2019-06-15T01:22:33.518Z,118.81
2019-06-15T01:25:38.668Z,119.00
2019-06-15T01:28:43.866Z,119.00
2019-06-15T01:31:50.341Z,118.95
2019-06-15T01:34:55.696Z,118.59
2019-06-15T01:38:01.025Z,117.94
2019-06-15T01:41:06.245Z,118.91
2019-06-15T01:44:11.414Z,119.00
2019-06-15T01:47:16.570Z,119.00
2019-06-15T01:50:21.790Z,119.00
2019-06-15T01:53:26.975Z,119.00
2019-06-15T01:56:32.184Z,119.00
2019-06-15T01:59:37.305Z,119.00
2019-06-15T02:02:42.508Z,119.00
2019-06-15T02:05:47.631Z,119.00
2019-06-15T02:08:52.785Z,119.00
2019-06-15T02:11:58.380Z,119.00
2019-06-15T02:15:03.591Z,119.00
2019-06-15T02:18:08.820Z,119.00
2019-06-15T02:21:14.030Z,119.00
2019-06-15T02:24:19.260Z,119.00
2019-06-15T02:27:24.450Z,119.00
2019-06-15T02:30:31.711Z,119.00
2019-06-15T02:33:36.970Z,119.00
2019-06-15T02:36:42.161Z,119.00
2019-06-15T02:39:47.337Z,119.00
2019-06-15T02:42:52.669Z,119.00
2019-06-15T02:45:57.916Z,119.00
2019-06-15T02:49:04.625Z,119.00
2019-06-15T02:52:10.367Z,119.00
2019-06-15T02:55:16.155Z,119.00
2019-06-15T02:58:21.450Z,119.00
2019-06-15T03:01:26.718Z,119.00
2019-06-15T03:04:31.941Z,119.00
2019-06-15T03:07:37.336Z,119.00
2019-06-15T03:10:42.622Z,119.00
2019-06-15T03:13:48.321Z,119.00
2019-06-15T03:16:54.450Z,119.00
2019-06-15T03:19:59.616Z,119.00
2019-06-15T03:23:04.799Z,119.00
2019-06-15T03:26:09.981Z,119.00
2019-06-15T03:29:15.203Z,119.00
2019-06-15T03:32:20.472Z,119.00
2019-06-15T03:35:25.662Z,119.00
2019-06-15T03:38:30.851Z,119.00
2019-06-15T03:41:36.020Z,119.00
2019-06-15T03:44:42.375Z,119.00
2019-06-15T03:47:47.595Z,119.00
2019-06-15T03:50:52.843Z,119.00
2019-06-15T03:53:58.018Z,119.00
2019-06-15T03:57:03.324Z,119.00
2019-06-15T04:00:33.950Z,119.00
2019-06-15T04:03:39.124Z,119.00
2019-06-15T04:06:44.262Z,119.00
2019-06-15T04:09:50.291Z,119.00
2019-06-15T04:12:55.531Z,119.00
2019-06-15T04:16:00.651Z,119.00
2019-06-15T04:19:06.085Z,119.00
2019-06-15T04:22:11.321Z,119.00
2019-06-15T04:25:16.680Z,119.00
2019-06-15T04:28:21.957Z,119.00
2019-06-15T04:31:27.127Z,119.00
2019-06-15T04:34:32.310Z,119.00
2019-06-15T04:37:37.445Z,119.00
2019-06-15T04:40:42.651Z,119.00
2019-06-15T04:43:50.908Z,119.00
2019-06-15T04:46:54.680Z,119.00
2019-06-15T04:49:59.855Z,119.00
2019-06-15T04:53:05.043Z,116.49
2019-06-15T04:56:10.181Z,113.99
2019-06-15T04:59:15.366Z,111.52
2019-06-15T05:02:20.606Z,110.22
2019-06-15T05:05:25.798Z,111.21
2019-06-15T05:08:30.971Z,110.18
2019-06-15T05:11:36.330Z,110.29
2019-06-15T05:14:41.534Z,110.36
2019-06-15T05:17:46.727Z,106.12
2019-06-15T05:20:52.891Z,107.74
2019-06-15T05:23:59.117Z,106.96
2019-06-15T05:27:06.553Z,106.53
2019-06-15T05:30:12.091Z,106.19
2019-06-15T05:33:17.294Z,100.58
2019-06-15T05:36:22.456Z,99.08
2019-06-15T05:39:27.707Z,96.80
2019-06-15T05:42:32.969Z,93.08
2019-06-15T05:45:38.233Z,89.76
2019-06-15T05:48:44.546Z,85.25
2019-06-15T05:51:49.754Z,85.50
2019-06-15T05:54:55.042Z,80.12
2019-06-15T05:58:00.281Z,73.64
2019-06-15T06:01:07.831Z,77.52
2019-06-15T06:04:12.980Z,69.79
2019-06-15T06:07:18.196Z,66.88
2019-06-15T06:10:23.378Z,75.89
2019-06-15T06:13:28.589Z,84.30
2019-06-15T06:16:33.886Z,83.32
2019-06-15T06:19:39.126Z,86.47
2019-06-15T06:22:44.315Z,86.94
2019-06-15T06:25:49.489Z,87.20
2019-06-15T06:28:57.471Z,85.34
2019-06-15T06:32:01.597Z,85.42
2019-06-15T06:35:07.130Z,82.65
2019-06-15T06:38:12.293Z,84.59
2019-06-15T06:41:17.507Z,83.76
2019-06-15T06:44:22.703Z,90.44
2019-06-15T06:47:27.912Z,83.24
2019-06-15T06:50:33.199Z,91.36
2019-06-15T06:53:38.443Z,95.70
2019-06-15T06:56:43.725Z,97.21
2019-06-15T06:59:48.957Z,94.28
2019-06-15T07:02:54.153Z,93.35
2019-06-15T07:05:59.391Z,87.18
2019-06-15T07:09:05.612Z,78.78
2019-06-15T07:12:10.820Z,69.59
2019-06-15T07:15:16.223Z,70.43
2019-06-15T07:18:21.523Z,70.13
2019-06-15T07:21:26.732Z,66.67
2019-06-15T07:24:31.935Z,65.53
2019-06-15T07:27:37.252Z,68.83
2019-06-15T07:30:43.437Z,75.62
2019-06-15T07:33:48.655Z,73.52
2019-06-15T07:36:54.773Z,75.81
2019-06-15T07:40:00.046Z,77.64
2019-06-15T07:43:05.273Z,75.49
2019-06-15T07:46:10.587Z,69.05
2019-06-15T07:49:15.807Z,71.04
2019-06-15T07:52:21.017Z,73.35
2019-06-15T07:55:26.306Z,78.70
2019-06-15T07:58:31.472Z,67.95
2019-06-15T08:01:38.286Z,66.61
2019-06-15T08:04:44.483Z,70.57
2019-06-15T08:07:49.753Z,72.29
2019-06-15T08:10:55.054Z,78.52
2019-06-15T08:14:00.286Z,81.92
2019-06-15T08:17:05.586Z,75.90
2019-06-15T08:20:11.315Z,77.77
2019-06-15T08:23:16.548Z,77.18
2019-06-15T08:26:21.845Z,78.03
2019-06-15T08:29:26.993Z,75.05
2019-06-15T08:32:32.338Z,78.19
2019-06-15T08:35:37.493Z,75.21
2019-06-15T08:38:42.912Z,73.94
2019-06-15T08:41:48.139Z,75.43
2019-06-15T08:44:53.359Z,75.42
2019-06-15T08:47:58.537Z,74.59
2019-06-15T08:51:03.843Z,74.72
2019-06-15T08:54:09.057Z,75.58
2019-06-15T08:57:14.340Z,78.59
2019-06-15T09:00:19.759Z,81.93
2019-06-15T09:03:25.064Z,78.26
2019-06-15T09:06:30.339Z,76.76
2019-06-15T09:09:35.574Z,79.16
2019-06-15T09:12:42.491Z,82.75
2019-06-15T09:15:52.641Z,85.98
2019-06-15T09:18:57.896Z,87.52
2019-06-15T09:22:03.103Z,89.87
2019-06-15T09:25:08.659Z,91.93
2019-06-15T09:28:13.819Z,91.32
2019-06-15T09:31:19.028Z,87.62
2019-06-15T09:34:24.251Z,89.92
2019-06-15T09:37:29.477Z,94.67
2019-06-15T09:40:34.715Z,94.92
2019-06-15T09:43:39.939Z,98.41
2019-06-15T09:46:45.163Z,99.94
2019-06-15T09:49:50.386Z,95.66
2019-06-15T09:52:55.600Z,95.62
2019-06-15T09:56:00.818Z,94.92
2019-06-15T09:59:05.958Z,92.49
2019-06-15T10:02:11.152Z,87.72
2019-06-15T10:05:17.427Z,86.24
2019-06-15T10:08:22.667Z,83.76
2019-06-15T10:11:27.839Z,80.39
2019-06-15T10:14:35.508Z,82.13
2019-06-15T10:17:40.753Z,82.28
2019-06-15T10:20:45.959Z,86.46
2019-06-15T10:23:51.132Z,89.26
2019-06-15T10:26:57.332Z,88.72
2019-06-15T10:30:02.618Z,88.01
2019-06-15T10:33:08.064Z,90.21
2019-06-15T10:36:13.363Z,87.69
2019-06-15T10:39:18.589Z,87.01
2019-06-15T10:42:23.888Z,89.22
2019-06-15T10:45:29.171Z,86.66
2019-06-15T10:48:34.366Z,85.39
2019-06-15T10:51:39.602Z,85.46
2019-06-15T10:54:44.775Z,85.93
2019-06-15T10:57:50.950Z,85.98
2019-06-15T11:00:56.305Z,83.98
2019-06-15T11:04:01.556Z,85.88
2019-06-15T11:07:07.826Z,89.51
2019-06-15T11:10:14.886Z,89.63
2019-06-15T11:13:20.112Z,90.74
2019-06-15T11:16:26.481Z,87.35
2019-06-15T11:19:31.734Z,87.82
2019-06-15T11:22:36.948Z,86.30
2019-06-15T11:25:42.140Z,83.44
2019-06-15T11:28:47.388Z,79.62
2019-06-15T11:31:52.595Z,79.18
2019-06-15T11:34:57.789Z,79.83
2019-06-15T11:38:03.037Z,82.10
2019-06-15T11:41:08.202Z,83.62
2019-06-15T11:44:13.427Z,83.07
2019-06-15T11:47:18.639Z,78.34
2019-06-15T11:50:23.868Z,74.96
2019-06-15T11:53:29.067Z,76.38
2019-06-15T11:56:34.274Z,75.13
2019-06-15T11:59:39.521Z,76.72
2019-06-15T12:02:44.824Z,76.23
2019-06-15T12:05:50.003Z,74.56
2019-06-15T12:08:55.253Z,72.88
2019-06-15T12:12:00.438Z,73.83
2019-06-15T12:15:05.802Z,74.59
2019-06-15T12:18:10.989Z,74.38
2019-06-15T12:21:16.177Z,75.42
2019-06-15T12:24:21.455Z,76.64
2019-06-15T12:27:26.624Z,76.25
2019-06-15T12:30:46.854Z,76.87
2019-06-15T12:33:44.448Z,75.91
2019-06-15T12:36:49.671Z,74.61
2019-06-15T12:39:54.939Z,74.87
2019-06-15T12:43:00.174Z,75.85
2019-06-15T12:46:05.376Z,78.05
2019-06-15T12:49:10.678Z,81.60
2019-06-15T12:52:15.874Z,80.41
2019-06-15T12:55:21.142Z,82.04
2019-06-15T12:58:26.347Z,85.57
2019-06-15T13:01:31.493Z,84.31
2019-06-15T13:04:36.836Z,85.50
2019-06-15T13:07:42.030Z,82.69
2019-06-15T13:10:47.250Z,78.58
2019-06-15T13:13:52.495Z,76.21
2019-06-15T13:16:57.732Z,73.75
2019-06-15T13:20:05.116Z,72.29
2019-06-15T13:23:13.473Z,69.47
2019-06-15T13:26:18.748Z,71.54
2019-06-15T13:29:24.244Z,72.56
2019-06-15T13:32:29.420Z,77.52
2019-06-15T13:35:34.819Z,80.30
2019-06-15T13:38:40.117Z,76.33
2019-06-15T13:41:45.433Z,76.01
2019-06-15T13:44:50.980Z,74.43
2019-06-15T13:47:56.250Z,70.95
2019-06-15T13:51:01.503Z,72.12
2019-06-15T13:54:06.988Z,71.46
2019-06-15T13:57:12.363Z,69.81
2019-06-15T14:00:18.916Z,73.40
2019-06-15T14:03:24.090Z,74.27
2019-06-15T14:06:29.355Z,73.95
2019-06-15T14:09:34.718Z,73.79
2019-06-15T14:12:39.917Z,72.14
2019-06-15T14:15:47.453Z,74.30
2019-06-15T14:18:52.686Z,73.36
2019-06-15T14:21:58.110Z,74.23
2019-06-15T14:25:03.427Z,73.43
2019-06-15T14:28:08.665Z,73.20
2019-06-15T14:31:13.910Z,71.67
2019-06-15T14:34:19.121Z,73.08
2019-06-15T14:37:24.420Z,69.23
2019-06-15T14:40:29.759Z,67.55
2019-06-15T14:43:35.041Z,65.88
2019-06-15T14:46:40.269Z,66.36
2019-06-15T14:49:45.501Z,68.88
2019-06-15T14:52:50.676Z,66.52
2019-06-15T14:55:56.519Z,67.32
2019-06-15T14:59:01.930Z,66.26
2019-06-15T15:02:13.700Z,63.46
2019-06-15T15:05:17.666Z,66.12
2019-06-15T15:08:26.203Z,64.23
2019-06-15T15:11:30.495Z,63.65
2019-06-15T15:14:36.531Z,64.69
2019-06-15T15:17:41.838Z,66.44
2019-06-15T15:20:46.995Z,65.38
2019-06-15T15:23:52.210Z,65.61
2019-06-15T15:26:57.440Z,67.08
2019-06-15T15:30:02.624Z,65.31
2019-06-15T15:33:08.050Z,65.15
2019-06-15T15:36:13.291Z,66.57
2019-06-15T15:39:18.475Z,64.21
2019-06-15T15:42:26.386Z,62.14
2019-06-15T15:45:30.450Z,66.10
2019-06-15T15:48:36.352Z,63.93
2019-06-15T15:51:41.639Z,66.09
2019-06-15T15:54:46.932Z,62.57
2019-06-15T15:57:52.170Z,64.80
2019-06-15T16:00:57.418Z,64.30
2019-06-15T16:04:02.627Z,64.00
2019-06-15T16:07:07.904Z,64.07
2019-06-15T16:10:13.232Z,62.82
2019-06-15T16:13:21.556Z,65.32
2019-06-15T16:16:26.906Z,63.75
2019-06-15T16:19:32.182Z,62.82
2019-06-15T16:22:37.320Z,63.47
2019-06-15T16:25:42.529Z,62.75
2019-06-15T16:28:47.706Z,62.75
2019-06-15T16:31:52.962Z,61.01
2019-06-15T16:34:58.269Z,63.77
2019-06-15T16:38:03.456Z,61.39
2019-06-15T16:41:08.650Z,60.63
2019-06-15T16:44:13.877Z,59.92
2019-06-15T16:47:19.062Z,61.39
2019-06-15T16:50:26.469Z,62.83
2019-06-15T16:53:31.128Z,61.01
2019-06-15T16:56:36.361Z,59.83
2019-06-15T16:59:41.586Z,61.49
2019-06-15T17:02:47.000Z,61.59
2019-06-15T17:05:52.301Z,60.19
2019-06-15T17:08:57.464Z,62.13
2019-06-15T17:12:06.409Z,59.34
2019-06-15T17:15:11.815Z,61.88
2019-06-15T17:18:16.990Z,58.87
2019-06-15T17:21:22.152Z,59.53
2019-06-15T17:24:27.336Z,61.69
2019-06-15T17:27:32.509Z,59.82
2019-06-15T17:30:37.653Z,61.03
2019-06-15T17:33:42.934Z,60.52
2019-06-15T17:36:48.250Z,62.24
2019-06-15T17:39:56.171Z,62.72
2019-06-15T17:43:01.727Z,60.31
2019-06-15T17:46:07.984Z,60.37
2019-06-15T17:49:13.221Z,62.04
2019-06-15T17:52:18.440Z,60.07
2019-06-15T17:55:23.590Z,59.57
2019-06-15T17:58:28.770Z,61.11
2019-06-15T18:01:36.288Z,62.93
2019-06-15T18:04:40.841Z,67.16
2019-06-15T18:07:46.957Z,66.32
2019-06-15T18:10:52.295Z,66.34
2019-06-15T18:13:57.497Z,67.47
2019-06-15T18:17:02.651Z,68.79
2019-06-15T18:20:07.841Z,71.48
2019-06-15T18:23:13.055Z,70.70
2019-06-15T18:26:18.289Z,70.32
2019-06-15T18:29:26.292Z,70.92
2019-06-15T18:32:31.699Z,75.01
2019-06-15T18:35:36.896Z,72.31
2019-06-15T18:38:42.106Z,75.63
2019-06-15T18:41:47.286Z,73.36
2019-06-15T18:45:08.170Z,74.55
2019-06-15T18:48:06.258Z,79.64
2019-06-15T18:51:11.751Z,81.96
2019-06-15T18:54:16.994Z,79.77
2019-06-15T18:57:22.177Z,77.25
2019-06-15T19:00:27.420Z,77.76
2019-06-15T19:03:32.616Z,79.29
2019-06-15T19:06:37.856Z,79.06
2019-06-15T19:09:43.098Z,80.77
2019-06-15T19:12:48.331Z,82.83
2019-06-15T19:15:57.322Z,82.09
2019-06-15T19:19:02.934Z,81.17
2019-06-15T19:22:08.229Z,83.18
2019-06-15T19:25:16.181Z,83.24
2019-06-15T19:28:21.464Z,80.93
2019-06-15T19:31:28.530Z,79.99
2019-06-15T19:34:46.287Z,80.85
2019-06-15T19:37:40.772Z,80.87
2019-06-15T19:40:46.215Z,82.26
2019-06-15T19:43:51.622Z,81.66
2019-06-15T19:47:00.230Z,82.86
2019-06-15T19:50:06.676Z,82.64
2019-06-15T19:53:10.769Z,83.92
2019-06-15T19:56:15.974Z,84.03
2019-06-15T19:59:21.301Z,84.17
2019-06-15T20:02:26.981Z,85.33
2019-06-15T20:05:32.474Z,86.17
2019-06-15T20:08:37.742Z,86.89
2019-06-15T20:11:46.670Z,88.32
2019-06-15T20:14:51.226Z,89.06
2019-06-15T20:17:57.091Z,91.33
2019-06-15T20:21:03.395Z,94.03
2019-06-15T20:24:09.016Z,94.10
2019-06-15T20:27:16.413Z,94.18
2019-06-15T20:30:21.674Z,94.38
2019-06-15T20:33:26.926Z,93.77
2019-06-15T20:36:32.302Z,94.70
2019-06-15T20:39:37.596Z,91.29
2019-06-15T20:42:42.898Z,92.22
2019-06-15T20:45:48.802Z,95.45
2019-06-15T20:48:56.533Z,97.04
2019-06-15T20:52:01.619Z,96.85
2019-06-15T20:55:07.330Z,96.23
2019-06-15T20:58:16.854Z,95.25
2019-06-15T21:01:20.492Z,93.38
2019-06-15T21:04:27.351Z,95.02
2019-06-15T21:07:32.572Z,94.10
2019-06-15T21:10:38.750Z,91.26
2019-06-15T21:13:46.711Z,90.62
2019-06-15T21:16:50.950Z,88.75
2019-06-15T21:19:56.216Z,90.48
2019-06-15T21:23:01.432Z,92.21
2019-06-15T21:26:09.676Z,93.04
2019-06-15T21:29:16.711Z,92.89
2019-06-15T21:32:21.864Z,93.89
2019-06-15T21:35:27.087Z,93.94
2019-06-15T21:38:38.757Z,95.28
2019-06-15T21:41:40.290Z,94.83
2019-06-15T21:44:46.993Z,94.83
2019-06-15T21:47:52.412Z,95.66
2019-06-15T21:50:59.588Z,96.69
2019-06-15T21:54:06.707Z,98.13
2019-06-15T21:57:11.380Z,99.51
2019-06-15T22:00:21.213Z,100.57
2019-06-15T22:03:28.113Z,101.88
2019-06-15T22:06:33.515Z,101.72
2019-06-15T22:09:38.656Z,102.65
2019-06-15T22:12:46.276Z,102.31
2019-06-15T22:15:51.597Z,102.23
2019-06-15T22:18:57.061Z,102.44
2019-06-15T22:22:03.380Z,102.54
2019-06-15T22:25:09.210Z,103.48
2019-06-15T22:28:16.456Z,103.62
2019-06-15T22:31:21.353Z,103.83
2019-06-15T22:34:26.597Z,104.41
2019-06-15T22:37:31.813Z,105.06
2019-06-15T22:40:37.016Z,106.18
2019-06-15T22:43:42.171Z,108.15
2019-06-15T22:46:47.445Z,108.73
2019-06-15T22:49:52.688Z,108.02
2019-06-15T22:52:57.869Z,107.41
2019-06-15T22:56:03.202Z,109.28
2019-06-15T22:59:08.352Z,109.25
2019-06-15T23:02:13.688Z,109.54
2019-06-15T23:05:18.942Z,110.33
2019-06-15T23:08:26.846Z,110.83
2019-06-15T23:11:32.095Z,111.38
2019-06-15T23:14:37.362Z,112.23
2019-06-15T23:17:42.625Z,112.46
2019-06-15T23:20:47.890Z,112.82
2019-06-15T23:23:53.180Z,113.69
2019-06-15T23:26:58.427Z,114.62
2019-06-15T23:30:03.735Z,114.65
2019-06-15T23:33:09.039Z,115.28
2019-06-15T23:36:18.908Z,115.17
2019-06-15T23:39:26.873Z,115.56
2019-06-15T23:42:31.276Z,115.85
2019-06-15T23:45:36.528Z,116.04
2019-06-15T23:48:41.746Z,116.09
2019-06-15T23:51:46.975Z,116.55
2019-06-15T23:54:52.123Z,116.96
2019-06-15T23:57:57.384Z,117.47
